sensor_id;sensor_type;location;lat;lon;timestamp;pressure;altitude;pressure_sealevel;temperature;humidity
6038;BME280;3047;42.600;23.470;2023-06-22T00:00:51;93531.88;;;20.10;100.00
6038;BME280;3047;42.600;23.470;2023-06-22T00:03:19;93534.44;;;20.10;100.00
6038;BME280;3047;42.600;23.470;2023-06-22T00:05:46;93525.63;;;20.00;100.00
6038;BME280;3047;42.600;23.470;2023-06-22T00:08:13;93527.47;;;19.98;100.00
6038;BME280;3047;42.600;23.470;2023-06-22T00:10:40;93521.03;;;19.91;100.00
6038;BME280;3047;42.600;23.470;2023-06-22T00:13:08;93533.81;;;19.76;100.00
6038;BME280;3047;42.600;23.470;2023-06-22T00:15:37;93511.66;;;19.60;100.00
6038;BME280;3047;42.600;23.470;2023-06-22T00:18:05;93511.44;;;19.64;100.00
6038;BME280;3047;42.600;23.470;2023-06-22T00:20:32;93512.69;;;19.73;100.00
6038;BME280;3047;42.600;23.470;2023-06-22T00:23:04;93532.09;;;19.77;100.00
6038;BME280;3047;42.600;23.470;2023-06-22T00:25:33;93526.59;;;19.83;100.00
6038;BME280;3047;42.600;23.470;2023-06-22T00:28:00;93524.84;;;19.84;100.00
6038;BME280;3047;42.600;23.470;2023-06-22T00:30:30;93519.19;;;19.79;100.00
6038;BME280;3047;42.600;23.470;2023-06-22T00:32:59;93516.31;;;19.69;100.00
6038;BME280;3047;42.600;23.470;2023-06-22T00:35:26;93494.91;;;19.54;100.00
6038;BME280;3047;42.600;23.470;2023-06-22T00:37:54;93509.78;;;19.63;100.00
6038;BME280;3047;42.600;23.470;2023-06-22T00:40:26;93504.06;;;19.58;100.00
6038;BME280;3047;42.600;23.470;2023-06-22T00:42:54;93406.53;;;19.01;100.00
6038;BME280;3047;42.600;23.470;2023-06-22T00:45:21;93498.28;;;19.55;100.00
6038;BME280;3047;42.600;23.470;2023-06-22T00:47:48;93492.13;;;19.43;100.00
6038;BME280;3047;42.600;23.470;2023-06-22T00:50:19;93506.84;;;19.39;100.00
6038;BME280;3047;42.600;23.470;2023-06-22T00:52:48;93474.25;;;19.11;100.00
6038;BME280;3047;42.600;23.470;2023-06-22T00:55:17;93497.69;;;19.19;100.00
6038;BME280;3047;42.600;23.470;2023-06-22T00:57:45;93503.31;;;19.26;100.00
6038;BME280;3047;42.600;23.470;2023-06-22T01:00:13;93498.97;;;19.12;100.00
6038;BME280;3047;42.600;23.470;2023-06-22T01:02:41;93504.38;;;19.22;100.00
6038;BME280;3047;42.600;23.470;2023-06-22T01:05:11;93461.53;;;19.10;100.00
6038;BME280;3047;42.600;23.470;2023-06-22T01:07:45;93498.00;;;19.45;100.00
6038;BME280;3047;42.600;23.470;2023-06-22T01:10:21;93501.28;;;19.47;100.00
6038;BME280;3047;42.600;23.470;2023-06-22T01:12:52;93501.72;;;19.39;100.00
6038;BME280;3047;42.600;23.470;2023-06-22T01:15:25;93505.03;;;19.41;100.00
6038;BME280;3047;42.600;23.470;2023-06-22T01:17:56;93506.16;;;19.36;100.00
6038;BME280;3047;42.600;23.470;2023-06-22T01:20:25;93510.47;;;19.35;100.00
6038;BME280;3047;42.600;23.470;2023-06-22T01:23:07;93478.66;;;18.93;100.00
6038;BME280;3047;42.600;23.470;2023-06-22T01:25:43;93510.84;;;19.29;100.00
6038;BME280;3047;42.600;23.470;2023-06-22T01:28:20;93487.13;;;19.10;100.00
6038;BME280;3047;42.600;23.470;2023-06-22T01:30:51;93507.88;;;19.21;100.00
6038;BME280;3047;42.600;23.470;2023-06-22T01:33:29;93481.44;;;19.05;100.00
6038;BME280;3047;42.600;23.470;2023-06-22T01:35:58;93507.78;;;19.22;100.00
6038;BME280;3047;42.600;23.470;2023-06-22T01:38:26;93517.91;;;19.24;100.00
6038;BME280;3047;42.600;23.470;2023-06-22T01:40:54;93312.03;;;18.04;100.00
6038;BME280;3047;42.600;23.470;2023-06-22T01:43:22;93506.69;;;19.26;100.00
6038;BME280;3047;42.600;23.470;2023-06-22T01:45:52;93502.00;;;19.19;100.00
6038;BME280;3047;42.600;23.470;2023-06-22T01:48:19;93508.34;;;19.27;100.00
6038;BME280;3047;42.600;23.470;2023-06-22T01:50:46;93483.50;;;18.98;100.00
6038;BME280;3047;42.600;23.470;2023-06-22T01:53:13;93515.63;;;19.19;100.00
6038;BME280;3047;42.600;23.470;2023-06-22T01:55:40;93526.34;;;19.26;100.00
6038;BME280;3047;42.600;23.470;2023-06-22T01:58:07;93511.81;;;19.26;100.00
6038;BME280;3047;42.600;23.470;2023-06-22T02:00:37;93528.50;;;19.18;100.00
6038;BME280;3047;42.600;23.470;2023-06-22T02:03:11;93504.81;;;18.98;100.00
6038;BME280;3047;42.600;23.470;2023-06-22T02:05:51;93529.69;;;19.12;100.00
6038;BME280;3047;42.600;23.470;2023-06-22T02:08:21;93529.75;;;19.11;100.00
6038;BME280;3047;42.600;23.470;2023-06-22T02:10:49;93537.13;;;19.01;100.00
6038;BME280;3047;42.600;23.470;2023-06-22T02:13:17;93536.22;;;18.69;100.00
6038;BME280;3047;42.600;23.470;2023-06-22T02:15:44;93539.41;;;18.74;100.00
6038;BME280;3047;42.600;23.470;2023-06-22T02:18:13;93469.81;;;18.34;100.00
6038;BME280;3047;42.600;23.470;2023-06-22T02:20:40;93525.00;;;18.56;100.00
6038;BME280;3047;42.600;23.470;2023-06-22T02:23:07;93526.69;;;18.55;100.00
6038;BME280;3047;42.600;23.470;2023-06-22T02:25:34;93524.19;;;18.71;100.00
6038;BME280;3047;42.600;23.470;2023-06-22T02:28:01;93522.72;;;18.83;100.00
6038;BME280;3047;42.600;23.470;2023-06-22T02:30:28;93519.03;;;18.72;100.00
6038;BME280;3047;42.600;23.470;2023-06-22T02:32:55;93515.38;;;18.76;100.00
6038;BME280;3047;42.600;23.470;2023-06-22T02:35:26;93463.47;;;18.41;100.00
6038;BME280;3047;42.600;23.470;2023-06-22T02:37:57;93512.75;;;18.78;100.00
6038;BME280;3047;42.600;23.470;2023-06-22T02:40:24;93512.31;;;18.70;100.00
6038;BME280;3047;42.600;23.470;2023-06-22T02:42:51;93472.75;;;18.44;100.00
6038;BME280;3047;42.600;23.470;2023-06-22T02:45:18;93518.06;;;18.58;100.00
6038;BME280;3047;42.600;23.470;2023-06-22T02:47:44;93521.00;;;18.50;100.00
6038;BME280;3047;42.600;23.470;2023-06-22T02:50:13;93513.97;;;18.38;100.00
6038;BME280;3047;42.600;23.470;2023-06-22T02:52:41;93520.66;;;18.40;100.00
6038;BME280;3047;42.600;23.470;2023-06-22T02:55:08;93517.09;;;18.43;100.00
6038;BME280;3047;42.600;23.470;2023-06-22T02:57:35;93526.63;;;18.57;100.00
6038;BME280;3047;42.600;23.470;2023-06-22T03:00:06;93511.53;;;18.52;100.00
6038;BME280;3047;42.600;23.470;2023-06-22T03:02:41;93526.81;;;18.69;100.00
6038;BME280;3047;42.600;23.470;2023-06-22T03:05:08;93534.94;;;18.77;100.00
6038;BME280;3047;42.600;23.470;2023-06-22T03:07:41;93546.09;;;18.76;100.00
6038;BME280;3047;42.600;23.470;2023-06-22T03:10:08;93516.06;;;18.63;100.00
6038;BME280;3047;42.600;23.470;2023-06-22T03:12:35;93546.69;;;18.82;100.00
6038;BME280;3047;42.600;23.470;2023-06-22T03:15:06;93495.53;;;18.48;100.00
6038;BME280;3047;42.600;23.470;2023-06-22T03:17:34;93559.22;;;18.86;100.00
6038;BME280;3047;42.600;23.470;2023-06-22T03:20:01;93549.75;;;18.88;100.00
6038;BME280;3047;42.600;23.470;2023-06-22T03:22:34;93545.50;;;18.87;100.00
6038;BME280;3047;42.600;23.470;2023-06-22T03:25:02;93466.81;;;18.43;100.00
6038;BME280;3047;42.600;23.470;2023-06-22T03:27:31;93549.22;;;18.82;100.00
6038;BME280;3047;42.600;23.470;2023-06-22T03:29:58;93552.63;;;18.82;100.00
6038;BME280;3047;42.600;23.470;2023-06-22T03:32:24;93552.28;;;18.72;100.00
6038;BME280;3047;42.600;23.470;2023-06-22T03:34:53;93543.91;;;18.69;100.00
6038;BME280;3047;42.600;23.470;2023-06-22T03:37:20;93545.75;;;18.83;100.00
6038;BME280;3047;42.600;23.470;2023-06-22T03:39:46;93530.91;;;18.73;100.00
6038;BME280;3047;42.600;23.470;2023-06-22T03:42:14;93554.69;;;18.91;100.00
6038;BME280;3047;42.600;23.470;2023-06-22T03:44:41;93550.22;;;18.95;100.00
6038;BME280;3047;42.600;23.470;2023-06-22T03:47:08;93552.63;;;18.98;100.00
6038;BME280;3047;42.600;23.470;2023-06-22T03:49:35;93560.00;;;19.04;100.00
6038;BME280;3047;42.600;23.470;2023-06-22T03:52:02;93533.22;;;18.94;100.00
6038;BME280;3047;42.600;23.470;2023-06-22T03:54:29;93548.09;;;19.03;100.00
6038;BME280;3047;42.600;23.470;2023-06-22T03:56:57;93570.56;;;19.14;100.00
6038;BME280;3047;42.600;23.470;2023-06-22T03:59:25;93573.69;;;19.19;100.00
6038;BME280;3047;42.600;23.470;2023-06-22T04:01:52;93572.72;;;19.21;100.00
6038;BME280;3047;42.600;23.470;2023-06-22T04:04:20;93572.16;;;19.16;100.00
6038;BME280;3047;42.600;23.470;2023-06-22T04:06:46;93588.41;;;19.31;100.00
6038;BME280;3047;42.600;23.470;2023-06-22T04:09:13;93532.56;;;19.06;100.00
6038;BME280;3047;42.600;23.470;2023-06-22T04:11:40;93579.56;;;19.37;100.00
6038;BME280;3047;42.600;23.470;2023-06-22T04:14:06;93569.97;;;19.40;100.00
6038;BME280;3047;42.600;23.470;2023-06-22T04:16:35;93571.28;;;19.47;100.00
6038;BME280;3047;42.600;23.470;2023-06-22T04:19:01;93572.88;;;19.50;100.00
6038;BME280;3047;42.600;23.470;2023-06-22T04:21:31;93566.09;;;19.49;100.00
6038;BME280;3047;42.600;23.470;2023-06-22T04:23:58;93506.13;;;19.21;100.00
6038;BME280;3047;42.600;23.470;2023-06-22T04:26:24;93562.34;;;19.55;100.00
6038;BME280;3047;42.600;23.470;2023-06-22T04:28:51;93571.28;;;19.63;100.00
6038;BME280;3047;42.600;23.470;2023-06-22T04:31:21;93549.22;;;19.61;100.00
6038;BME280;3047;42.600;23.470;2023-06-22T04:33:57;93557.72;;;19.77;100.00
6038;BME280;3047;42.600;23.470;2023-06-22T04:36:33;93555.06;;;19.79;100.00
6038;BME280;3047;42.600;23.470;2023-06-22T04:39:04;93540.41;;;19.81;100.00
6038;BME280;3047;42.600;23.470;2023-06-22T04:41:31;93542.38;;;19.91;100.00
6038;BME280;3047;42.600;23.470;2023-06-22T04:44:10;93544.97;;;20.06;100.00
6038;BME280;3047;42.600;23.470;2023-06-22T04:46:38;93539.66;;;20.09;100.00
6038;BME280;3047;42.600;23.470;2023-06-22T04:49:07;93541.78;;;20.16;100.00
6038;BME280;3047;42.600;23.470;2023-06-22T04:51:37;93532.44;;;20.15;100.00
6038;BME280;3047;42.600;23.470;2023-06-22T04:54:05;93521.63;;;20.10;100.00
6038;BME280;3047;42.600;23.470;2023-06-22T04:56:31;93547.94;;;20.28;100.00
6038;BME280;3047;42.600;23.470;2023-06-22T04:58:58;93543.19;;;20.36;100.00
6038;BME280;3047;42.600;23.470;2023-06-22T05:01:25;93544.47;;;20.43;100.00
6038;BME280;3047;42.600;23.470;2023-06-22T05:03:52;93549.31;;;20.48;100.00
6038;BME280;3047;42.600;23.470;2023-06-22T05:06:22;93558.19;;;20.58;100.00
6038;BME280;3047;42.600;23.470;2023-06-22T05:08:51;93557.69;;;20.66;100.00
6038;BME280;3047;42.600;23.470;2023-06-22T05:11:17;93568.25;;;20.76;100.00
6038;BME280;3047;42.600;23.470;2023-06-22T05:13:44;93560.09;;;20.69;100.00
6038;BME280;3047;42.600;23.470;2023-06-22T05:16:11;93584.28;;;20.93;100.00
6038;BME280;3047;42.600;23.470;2023-06-22T05:18:37;93591.09;;;20.94;100.00
6038;BME280;3047;42.600;23.470;2023-06-22T05:21:04;93519.75;;;20.57;100.00
6038;BME280;3047;42.600;23.470;2023-06-22T05:23:32;93587.50;;;20.97;100.00
6038;BME280;3047;42.600;23.470;2023-06-22T05:25:59;93583.81;;;21.01;100.00
6038;BME280;3047;42.600;23.470;2023-06-22T05:28:26;93540.19;;;20.72;100.00
6038;BME280;3047;42.600;23.470;2023-06-22T05:30:52;93582.25;;;21.13;100.00
6038;BME280;3047;42.600;23.470;2023-06-22T05:33:19;93589.66;;;21.17;100.00
6038;BME280;3047;42.600;23.470;2023-06-22T05:35:46;93589.59;;;21.19;100.00
6038;BME280;3047;42.600;23.470;2023-06-22T05:38:13;93601.50;;;21.20;100.00
6038;BME280;3047;42.600;23.470;2023-06-22T05:40:41;93597.09;;;21.22;100.00
6038;BME280;3047;42.600;23.470;2023-06-22T05:43:08;93602.97;;;21.24;100.00
6038;BME280;3047;42.600;23.470;2023-06-22T05:45:35;93592.97;;;21.19;100.00
6038;BME280;3047;42.600;23.470;2023-06-22T05:48:01;93584.72;;;21.14;100.00
6038;BME280;3047;42.600;23.470;2023-06-22T05:50:28;93592.97;;;21.19;100.00
6038;BME280;3047;42.600;23.470;2023-06-22T05:52:55;93555.75;;;20.98;100.00
6038;BME280;3047;42.600;23.470;2023-06-22T05:55:22;93610.69;;;21.38;100.00
6038;BME280;3047;42.600;23.470;2023-06-22T05:57:50;93565.19;;;21.12;100.00
6038;BME280;3047;42.600;23.470;2023-06-22T06:00:17;93603.59;;;21.42;100.00
6038;BME280;3047;42.600;23.470;2023-06-22T06:02:44;93612.47;;;21.51;100.00
6038;BME280;3047;42.600;23.470;2023-06-22T06:05:11;93588.19;;;21.42;100.00
6038;BME280;3047;42.600;23.470;2023-06-22T06:07:39;93614.28;;;21.63;100.00
6038;BME280;3047;42.600;23.470;2023-06-22T06:10:06;93613.81;;;21.70;100.00
6038;BME280;3047;42.600;23.470;2023-06-22T06:12:33;93610.03;;;21.76;100.00
6038;BME280;3047;42.600;23.470;2023-06-22T06:15:01;93598.72;;;21.79;100.00
6038;BME280;3047;42.600;23.470;2023-06-22T06:17:28;93599.16;;;21.85;100.00
6038;BME280;3047;42.600;23.470;2023-06-22T06:19:55;93596.28;;;21.90;100.00
6038;BME280;3047;42.600;23.470;2023-06-22T06:22:21;93602.19;;;21.92;100.00
6038;BME280;3047;42.600;23.470;2023-06-22T06:24:49;93598.47;;;21.96;100.00
6038;BME280;3047;42.600;23.470;2023-06-22T06:27:16;93566.75;;;21.83;100.00
6038;BME280;3047;42.600;23.470;2023-06-22T06:29:44;93556.25;;;21.86;100.00
6038;BME280;3047;42.600;23.470;2023-06-22T06:32:15;93593.81;;;22.15;100.00
6038;BME280;3047;42.600;23.470;2023-06-22T06:34:41;93599.50;;;22.20;100.00
6038;BME280;3047;42.600;23.470;2023-06-22T06:37:08;93590.66;;;22.25;100.00
6038;BME280;3047;42.600;23.470;2023-06-22T06:39:35;93558.34;;;22.06;100.00
6038;BME280;3047;42.600;23.470;2023-06-22T06:42:02;93525.00;;;21.92;100.00
6038;BME280;3047;42.600;23.470;2023-06-22T06:44:29;93588.72;;;22.41;100.00
6038;BME280;3047;42.600;23.470;2023-06-22T06:46:55;93590.47;;;22.53;100.00
6038;BME280;3047;42.600;23.470;2023-06-22T06:49:23;93590.66;;;22.63;100.00
6038;BME280;3047;42.600;23.470;2023-06-22T06:51:50;93589.22;;;22.71;100.00
6038;BME280;3047;42.600;23.470;2023-06-22T06:54:17;93590.47;;;22.79;100.00
6038;BME280;3047;42.600;23.470;2023-06-22T06:56:46;93571.28;;;22.83;100.00
6038;BME280;3047;42.600;23.470;2023-06-22T06:59:13;93597.81;;;22.98;100.00
6038;BME280;3047;42.600;23.470;2023-06-22T07:01:40;93588.81;;;23.03;100.00
6038;BME280;3047;42.600;23.470;2023-06-22T07:04:07;93591.38;;;23.16;100.00
6038;BME280;3047;42.600;23.470;2023-06-22T07:06:35;93589.53;;;23.18;100.00
6038;BME280;3047;42.600;23.470;2023-06-22T07:09:03;93537.41;;;22.89;100.00
6038;BME280;3047;42.600;23.470;2023-06-22T07:11:30;93584.53;;;23.28;100.00
6038;BME280;3047;42.600;23.470;2023-06-22T07:13:56;93584.13;;;23.34;100.00
6038;BME280;3047;42.600;23.470;2023-06-22T07:16:24;93591.91;;;23.45;100.00
6038;BME280;3047;42.600;23.470;2023-06-22T07:18:51;93602.28;;;23.56;100.00
6038;BME280;3047;42.600;23.470;2023-06-22T07:21:18;93600.09;;;23.76;100.00
6038;BME280;3047;42.600;23.470;2023-06-22T07:23:46;93580.69;;;23.83;100.00
6038;BME280;3047;42.600;23.470;2023-06-22T07:26:13;93587.06;;;24.01;100.00
6038;BME280;3047;42.600;23.470;2023-06-22T07:28:41;93586.09;;;24.15;100.00
6038;BME280;3047;42.600;23.470;2023-06-22T07:31:08;93591.22;;;24.39;100.00
6038;BME280;3047;42.600;23.470;2023-06-22T07:33:34;93587.97;;;24.48;100.00
6038;BME280;3047;42.600;23.470;2023-06-22T07:36:01;93573.53;;;24.57;100.00
6038;BME280;3047;42.600;23.470;2023-06-22T07:38:32;93594.94;;;24.81;97.36
6038;BME280;3047;42.600;23.470;2023-06-22T07:41:01;93589.66;;;24.94;97.86
6038;BME280;3047;42.600;23.470;2023-06-22T07:43:29;93599.03;;;25.06;99.88
6038;BME280;3047;42.600;23.470;2023-06-22T07:45:58;93598.25;;;25.28;93.00
6038;BME280;3047;42.600;23.470;2023-06-22T07:48:25;93605.41;;;25.36;91.30
6038;BME280;3047;42.600;23.470;2023-06-22T07:50:52;93607.50;;;25.53;90.20
6038;BME280;3047;42.600;23.470;2023-06-22T07:53:19;93605.84;;;25.63;89.77
6038;BME280;3047;42.600;23.470;2023-06-22T07:55:45;93610.28;;;25.84;87.96
6038;BME280;3047;42.600;23.470;2023-06-22T07:58:13;93609.56;;;25.93;88.70
6038;BME280;3047;42.600;23.470;2023-06-22T08:00:41;93614.91;;;26.12;87.86
6038;BME280;3047;42.600;23.470;2023-06-22T08:03:07;93605.06;;;26.27;86.19
6038;BME280;3047;42.600;23.470;2023-06-22T08:05:34;93590.69;;;26.34;83.15
6038;BME280;3047;42.600;23.470;2023-06-22T08:08:01;93600.28;;;26.44;81.12
6038;BME280;3047;42.600;23.470;2023-06-22T08:10:27;93592.66;;;26.63;83.71
6038;BME280;3047;42.600;23.470;2023-06-22T08:12:54;93584.38;;;26.90;78.22
6038;BME280;3047;42.600;23.470;2023-06-22T08:15:22;93596.72;;;27.07;76.77
6038;BME280;3047;42.600;23.470;2023-06-22T08:17:49;93590.94;;;27.25;77.54
6038;BME280;3047;42.600;23.470;2023-06-22T08:20:17;93593.34;;;27.47;73.52
6038;BME280;3047;42.600;23.470;2023-06-22T08:22:44;93585.97;;;27.52;73.42
6038;BME280;3047;42.600;23.470;2023-06-22T08:25:11;93593.72;;;27.83;75.73
6038;BME280;3047;42.600;23.470;2023-06-22T08:27:38;93592.63;;;27.85;72.19
6038;BME280;3047;42.600;23.470;2023-06-22T08:30:06;93583.91;;;27.96;70.38
6038;BME280;3047;42.600;23.470;2023-06-22T08:32:35;93533.47;;;27.89;71.90
6038;BME280;3047;42.600;23.470;2023-06-22T08:35:02;93540.94;;;28.31;69.45
6038;BME280;3047;42.600;23.470;2023-06-22T08:37:29;93561.72;;;28.60;70.94
6038;BME280;3047;42.600;23.470;2023-06-22T08:39:57;93558.59;;;28.56;65.89
6038;BME280;3047;42.600;23.470;2023-06-22T08:42:23;93541.91;;;28.49;69.98
6038;BME280;3047;42.600;23.470;2023-06-22T08:44:51;93556.66;;;28.58;68.16
6038;BME280;3047;42.600;23.470;2023-06-22T08:47:18;93577.84;;;28.73;68.33
6038;BME280;3047;42.600;23.470;2023-06-22T08:49:46;93576.19;;;28.82;68.37
6038;BME280;3047;42.600;23.470;2023-06-22T08:52:13;93574.22;;;28.94;67.55
6038;BME280;3047;42.600;23.470;2023-06-22T08:54:39;93576.53;;;29.06;66.85
6038;BME280;3047;42.600;23.470;2023-06-22T08:57:06;93586.78;;;29.18;68.14
6038;BME280;3047;42.600;23.470;2023-06-22T08:59:33;93573.88;;;29.16;65.91
6038;BME280;3047;42.600;23.470;2023-06-22T09:01:59;93556.97;;;29.02;62.99
6038;BME280;3047;42.600;23.470;2023-06-22T09:04:26;93570.53;;;29.06;63.95
6038;BME280;3047;42.600;23.470;2023-06-22T09:06:54;93571.63;;;28.94;63.05
6038;BME280;3047;42.600;23.470;2023-06-22T09:09:21;93565.22;;;28.98;63.91
6038;BME280;3047;42.600;23.470;2023-06-22T09:11:48;93573.88;;;29.16;63.63
6038;BME280;3047;42.600;23.470;2023-06-22T09:14:15;93571.09;;;29.27;63.18
6038;BME280;3047;42.600;23.470;2023-06-22T09:16:41;93571.31;;;29.44;60.31
6038;BME280;3047;42.600;23.470;2023-06-22T09:19:08;93568.25;;;29.58;61.42
6038;BME280;3047;42.600;23.470;2023-06-22T09:21:36;93567.16;;;29.78;61.45
6038;BME280;3047;42.600;23.470;2023-06-22T09:24:05;93562.47;;;30.00;61.13
6038;BME280;3047;42.600;23.470;2023-06-22T09:26:32;93567.13;;;30.06;61.14
6038;BME280;3047;42.600;23.470;2023-06-22T09:28:58;93562.09;;;30.13;61.40
6038;BME280;3047;42.600;23.470;2023-06-22T09:31:25;93560.81;;;30.26;59.39
6038;BME280;3047;42.600;23.470;2023-06-22T09:33:52;93556.41;;;30.27;61.29
6038;BME280;3047;42.600;23.470;2023-06-22T09:36:19;93558.38;;;30.33;61.32
6038;BME280;3047;42.600;23.470;2023-06-22T09:38:47;93566.16;;;30.43;58.60
6038;BME280;3047;42.600;23.470;2023-06-22T09:41:15;93551.44;;;30.42;59.28
6038;BME280;3047;42.600;23.470;2023-06-22T09:43:42;93558.50;;;30.49;60.47
6038;BME280;3047;42.600;23.470;2023-06-22T09:46:10;93565.00;;;30.63;61.17
6038;BME280;3047;42.600;23.470;2023-06-22T09:48:36;93568.59;;;30.70;57.12
6038;BME280;3047;42.600;23.470;2023-06-22T09:51:03;93536.72;;;30.59;55.98
6038;BME280;3047;42.600;23.470;2023-06-22T09:53:30;93568.53;;;30.80;55.80
6038;BME280;3047;42.600;23.470;2023-06-22T09:55:56;93561.59;;;30.89;53.66
6038;BME280;3047;42.600;23.470;2023-06-22T09:58:25;93564.53;;;30.94;53.45
6038;BME280;3047;42.600;23.470;2023-06-22T10:00:51;93561.28;;;30.92;55.72
6038;BME280;3047;42.600;23.470;2023-06-22T10:03:19;93557.69;;;30.93;51.42
6038;BME280;3047;42.600;23.470;2023-06-22T10:05:46;93553.63;;;30.98;51.89
6038;BME280;3047;42.600;23.470;2023-06-22T10:08:13;93546.00;;;31.05;52.42
6038;BME280;3047;42.600;23.470;2023-06-22T10:10:39;93542.63;;;31.13;48.61
6038;BME280;3047;42.600;23.470;2023-06-22T10:13:08;93474.44;;;30.73;53.55
6038;BME280;3047;42.600;23.470;2023-06-22T10:15:38;93544.63;;;31.27;53.18
6038;BME280;3047;42.600;23.470;2023-06-22T10:18:05;93532.34;;;31.19;52.73
6038;BME280;3047;42.600;23.470;2023-06-22T10:20:31;93545.78;;;31.24;52.42
6038;BME280;3047;42.600;23.470;2023-06-22T10:22:58;93534.84;;;31.21;49.49
6038;BME280;3047;42.600;23.470;2023-06-22T10:25:26;93543.53;;;31.30;50.03
6038;BME280;3047;42.600;23.470;2023-06-22T10:27:52;93539.34;;;31.37;50.60
6038;BME280;3047;42.600;23.470;2023-06-22T10:30:19;93547.16;;;31.37;56.71
6038;BME280;3047;42.600;23.470;2023-06-22T10:32:47;93523.41;;;31.22;50.36
6038;BME280;3047;42.600;23.470;2023-06-22T10:35:14;93537.88;;;31.42;52.01
6038;BME280;3047;42.600;23.470;2023-06-22T10:37:42;93535.94;;;31.44;50.44
6038;BME280;3047;42.600;23.470;2023-06-22T10:40:10;93532.66;;;31.42;49.81
6038;BME280;3047;42.600;23.470;2023-06-22T10:42:37;93529.41;;;31.48;51.74
6038;BME280;3047;42.600;23.470;2023-06-22T10:45:05;93525.63;;;31.43;49.44
6038;BME280;3047;42.600;23.470;2023-06-22T10:47:32;93510.56;;;31.28;53.10
6038;BME280;3047;42.600;23.470;2023-06-22T10:50:00;93500.13;;;31.28;52.74
6038;BME280;3047;42.600;23.470;2023-06-22T10:52:27;93530.03;;;31.42;50.38
6038;BME280;3047;42.600;23.470;2023-06-22T10:54:54;93533.31;;;31.44;52.91
6038;BME280;3047;42.600;23.470;2023-06-22T10:57:21;93530.34;;;31.39;52.43
6038;BME280;3047;42.600;23.470;2023-06-22T10:59:48;93526.91;;;31.39;51.37
6038;BME280;3047;42.600;23.470;2023-06-22T11:02:15;93527.88;;;31.30;50.14
6038;BME280;3047;42.600;23.470;2023-06-22T11:04:41;93527.63;;;31.49;54.82
6038;BME280;3047;42.600;23.470;2023-06-22T11:07:09;93512.25;;;31.46;50.86
6038;BME280;3047;42.600;23.470;2023-06-22T11:09:36;93529.78;;;31.62;49.04
6038;BME280;3047;42.600;23.470;2023-06-22T11:12:06;93526.50;;;31.60;52.32
6038;BME280;3047;42.600;23.470;2023-06-22T11:14:33;93522.94;;;31.69;49.66
6038;BME280;3047;42.600;23.470;2023-06-22T11:16:59;93516.44;;;31.81;50.43
6038;BME280;3047;42.600;23.470;2023-06-22T11:19:26;93518.41;;;31.87;51.59
6038;BME280;3047;42.600;23.470;2023-06-22T11:21:53;93523.16;;;31.92;51.67
6038;BME280;3047;42.600;23.470;2023-06-22T11:24:21;93522.03;;;31.94;50.87
6038;BME280;3047;42.600;23.470;2023-06-22T11:26:48;93515.44;;;31.82;54.36
6038;BME280;3047;42.600;23.470;2023-06-22T11:29:14;93513.13;;;31.71;49.82
6038;BME280;3047;42.600;23.470;2023-06-22T11:31:41;93514.44;;;31.67;48.86
6038;BME280;3047;42.600;23.470;2023-06-22T11:34:09;93508.22;;;31.60;52.71
6038;BME280;3047;42.600;23.470;2023-06-22T11:36:36;93499.22;;;31.54;50.45
6038;BME280;3047;42.600;23.470;2023-06-22T11:39:03;93492.53;;;31.51;52.85
6038;BME280;3047;42.600;23.470;2023-06-22T11:41:31;93503.47;;;31.63;52.43
6038;BME280;3047;42.600;23.470;2023-06-22T11:43:58;93503.47;;;31.55;51.46
6038;BME280;3047;42.600;23.470;2023-06-22T11:46:25;93496.41;;;31.39;49.02
6038;BME280;3047;42.600;23.470;2023-06-22T11:48:51;93481.16;;;31.26;50.42
6038;BME280;3047;42.600;23.470;2023-06-22T11:51:18;93498.03;;;31.32;55.33
6038;BME280;3047;42.600;23.470;2023-06-22T11:53:45;93486.63;;;31.33;54.83
6038;BME280;3047;42.600;23.470;2023-06-22T11:56:12;93495.03;;;31.27;51.66
6038;BME280;3047;42.600;23.470;2023-06-22T11:58:40;93491.59;;;31.26;50.54
6038;BME280;3047;42.600;23.470;2023-06-22T12:01:06;93494.66;;;31.14;50.51
6038;BME280;3047;42.600;23.470;2023-06-22T12:03:33;93491.31;;;30.87;48.78
6038;BME280;3047;42.600;23.470;2023-06-22T12:06:00;93495.53;;;30.62;50.89
6038;BME280;3047;42.600;23.470;2023-06-22T12:08:26;93506.63;;;30.38;54.69
6038;BME280;3047;42.600;23.470;2023-06-22T12:10:53;93511.41;;;30.07;55.41
6038;BME280;3047;42.600;23.470;2023-06-22T12:13:20;93514.41;;;29.76;75.15
6038;BME280;3047;42.600;23.470;2023-06-22T12:15:48;93518.81;;;29.48;76.66
6038;BME280;3047;42.600;23.470;2023-06-22T12:18:16;93532.84;;;29.10;82.35
6038;BME280;3047;42.600;23.470;2023-06-22T12:20:46;93536.78;;;28.77;89.84
6038;BME280;3047;42.600;23.470;2023-06-22T12:23:12;93515.00;;;28.21;89.61
6038;BME280;3047;42.600;23.470;2023-06-22T12:25:39;93524.44;;;27.93;94.97
6038;BME280;3047;42.600;23.470;2023-06-22T12:28:06;93523.13;;;27.39;96.80
6038;BME280;3047;42.600;23.470;2023-06-22T12:30:33;93523.91;;;26.59;100.00
6038;BME280;3047;42.600;23.470;2023-06-22T12:33:01;93505.69;;;25.86;100.00
6038;BME280;3047;42.600;23.470;2023-06-22T12:35:27;93521.06;;;25.56;100.00
6038;BME280;3047;42.600;23.470;2023-06-22T12:37:54;93517.97;;;25.19;100.00
6038;BME280;3047;42.600;23.470;2023-06-22T12:40:21;93508.38;;;24.53;100.00
6038;BME280;3047;42.600;23.470;2023-06-22T12:42:47;93513.22;;;24.11;100.00
6038;BME280;3047;42.600;23.470;2023-06-22T12:45:15;93520.41;;;23.84;100.00
6038;BME280;3047;42.600;23.470;2023-06-22T12:47:41;93508.16;;;23.75;100.00
6038;BME280;3047;42.600;23.470;2023-06-22T12:50:10;93505.25;;;23.55;100.00
6038;BME280;3047;42.600;23.470;2023-06-22T12:52:37;93508.09;;;23.39;100.00
6038;BME280;3047;42.600;23.470;2023-06-22T12:55:07;93526.72;;;23.19;100.00
6038;BME280;3047;42.600;23.470;2023-06-22T12:57:34;93539.25;;;22.87;100.00
6038;BME280;3047;42.600;23.470;2023-06-22T13:00:00;93539.47;;;22.58;100.00
6038;BME280;3047;42.600;23.470;2023-06-22T13:02:27;93530.09;;;22.19;100.00
6038;BME280;3047;42.600;23.470;2023-06-22T13:04:54;93545.03;;;21.87;100.00
6038;BME280;3047;42.600;23.470;2023-06-22T13:07:22;93541.63;;;21.46;100.00